createdAt,value
2023-03-13T00:04:59.044Z,10170.71035
2023-03-13T00:20:01.341Z,9921.12237
2023-03-13T00:35:03.639Z,9683.49071
2023-03-13T00:50:05.860Z,10639.09832
2023-03-13T01:05:08.136Z,10510.67838
2023-03-13T01:20:10.378Z,10107.14341
2023-03-13T01:35:12.638Z,9991.17443
2023-03-13T01:50:15.260Z,9121.6766
2023-03-13T02:05:17.620Z,5192.66108
2023-03-13T02:20:19.849Z,6710.13681
2023-03-13T02:35:22.162Z,7648.64914
2023-03-13T02:50:24.467Z,8397.62662
2023-03-13T03:05:26.733Z,7726.96295
2023-03-13T03:20:28.999Z,7312.66199
2023-03-13T03:35:31.254Z,7833.91053
2023-03-13T03:50:33.454Z,7576.97506
2023-03-13T04:05:35.763Z,6581.39582
2023-03-13T04:20:38.064Z,6435.47517
2023-03-13T04:35:40.551Z,5699.89985
2023-03-13T04:50:42.890Z,5226.22399
2023-03-13T05:05:45.113Z,4772.34453
2023-03-13T05:20:47.469Z,4249.24975
2023-03-13T05:35:49.707Z,4314.0249
2023-03-13T05:50:51.974Z,4360.55521
2023-03-13T06:05:54.176Z,4327.21763
2023-03-13T06:20:56.385Z,4116.36414
2023-03-13T06:35:58.641Z,3994.35477
2023-03-13T06:51:00.879Z,3960.81226
2023-03-13T07:06:03.117Z,3775.85106
2023-03-13T07:21:05.363Z,3449.11688
2023-03-13T07:36:07.834Z,3185.14399
2023-03-13T07:51:10.247Z,3315.75913
2023-03-13T08:06:12.463Z,3232.43909
2023-03-13T08:21:14.683Z,3125.3456
2023-03-13T08:36:17.035Z,2887.75563
2023-03-13T08:51:19.290Z,2849.95017
2023-03-13T09:06:21.541Z,2497.79398
2023-03-13T09:21:23.798Z,2323.48162
2023-03-13T09:36:26.206Z,2652.29668
2023-03-13T09:51:28.499Z,2287.79355
2023-03-13T10:06:30.824Z,2111.9408
2023-03-13T10:21:33.088Z,1874.17268
2023-03-13T10:36:35.342Z,1786.61666
2023-03-13T10:51:37.554Z,1567.86753
2023-03-13T11:06:39.840Z,1387.25541
2023-03-13T11:21:42.095Z,1424.97534
2023-03-13T11:36:44.476Z,1536.374
2023-03-13T11:51:46.817Z,1524.78497
2023-03-13T12:06:49.193Z,1749.07342
2023-03-13T12:21:51.458Z,1695.62662
2023-03-13T12:36:53.745Z,1610.70055
2023-03-13T12:51:56.060Z,1686.53208
2023-03-13T13:06:58.274Z,1315.05627
2023-03-13T13:22:00.534Z,1105.46925
2023-03-13T13:37:02.904Z,959.97336
2023-03-13T13:52:05.129Z,956.08158
2023-03-13T14:07:07.453Z,972.50909
2023-03-13T14:22:09.668Z,1000.70771
2023-03-13T14:37:18.264Z,918.83167
2023-03-13T14:52:20.738Z,957.37533
2023-03-13T15:07:23.125Z,720.48288
2023-03-13T15:22:25.321Z,678.30492
2023-03-13T15:37:27.573Z,714.65491
2023-03-13T15:52:29.843Z,699.10358
2023-03-13T16:07:32.055Z,770.27812
2023-03-13T16:22:34.312Z,861.22996
2023-03-13T16:37:36.603Z,886.03682
2023-03-13T16:52:39.003Z,867.03481
2023-03-13T17:07:41.342Z,875.0778
2023-03-13T17:22:43.592Z,912.90372
2023-03-13T17:37:45.837Z,1048.14865
2023-03-13T17:52:48.075Z,1091.82149
2023-03-13T18:07:50.326Z,1058.34007
2023-03-13T18:22:52.784Z,1388.6168
2023-03-13T18:37:55.084Z,1981.79322
2023-03-13T18:52:57.355Z,2418.80393
2023-03-13T19:07:59.662Z,2495.59134
2023-03-13T19:23:01.894Z,2412.61773
2023-03-13T19:38:04.119Z,2282.25857
2023-03-13T19:53:06.348Z,2769.08076
2023-03-13T20:08:08.606Z,3125.3456
2023-03-13T20:23:10.872Z,2734.30004
2023-03-13T20:38:13.085Z,2774.51033
2023-03-13T20:53:15.603Z,3151.44815
2023-03-13T21:08:17.983Z,3273.56902
2023-03-13T21:23:20.369Z,3062.77105
2023-03-13T21:38:22.622Z,2659.77496
2023-03-13T21:53:24.909Z,2873.09697
2023-03-13T22:08:27.257Z,3103.07066
2023-03-13T22:23:29.549Z,2700.3822
2023-03-13T22:38:31.841Z,2491.1977
2023-03-13T22:53:34.061Z,2280.41952
2023-03-13T23:08:36.393Z,2469.4595
2023-03-13T23:23:38.925Z,2317.77283
2023-03-13T23:38:41.147Z,2204.05035
2023-03-13T23:53:43.605Z,1988.75665
